sensor_id;sensor_type;location;lat;lon;timestamp;pressure;altitude;pressure_sealevel;temperature;humidity
64739;BME280;51175;51.186;0.276;2023-03-03T00:00:06;102272.25;;;10.66;64.50
64739;BME280;51175;51.186;0.276;2023-03-03T00:00:37;102276.72;;;10.66;64.31
64739;BME280;51175;51.186;0.276;2023-03-03T00:01:08;102278.53;;;10.65;64.35
64739;BME280;51175;51.186;0.276;2023-03-03T00:01:38;102279.38;;;10.66;64.38
64739;BME280;51175;51.186;0.276;2023-03-03T00:02:09;102270.63;;;10.65;64.49
64739;BME280;51175;51.186;0.276;2023-03-03T00:02:39;102274.06;;;10.66;64.44
64739;BME280;51175;51.186;0.276;2023-03-03T00:03:14;102276.72;;;10.66;64.63
64739;BME280;51175;51.186;0.276;2023-03-03T00:03:46;102271.44;;;10.66;64.38
64739;BME280;51175;51.186;0.276;2023-03-03T00:04:16;102274.91;;;10.66;64.46
64739;BME280;51175;51.186;0.276;2023-03-03T00:04:47;102275.13;;;10.65;64.52
64739;BME280;51175;51.186;0.276;2023-03-03T00:05:17;102280.19;;;10.66;64.60
64739;BME280;51175;51.186;0.276;2023-03-03T00:05:48;102271.22;;;10.67;64.67
64739;BME280;51175;51.186;0.276;2023-03-03T00:06:19;102270.63;;;10.65;64.59
64739;BME280;51175;51.186;0.276;2023-03-03T00:06:50;102274.06;;;10.66;64.65
64739;BME280;51175;51.186;0.276;2023-03-03T00:07:20;102269.59;;;10.66;64.52
64739;BME280;51175;51.186;0.276;2023-03-03T00:07:52;102274.91;;;10.66;64.45
64739;BME280;51175;51.186;0.276;2023-03-03T00:08:22;102275.72;;;10.67;64.44
64739;BME280;51175;51.186;0.276;2023-03-03T00:08:53;102266.16;;;10.66;64.63
64739;BME280;51175;51.186;0.276;2023-03-03T00:09:23;102268.78;;;10.66;64.61
64739;BME280;51175;51.186;0.276;2023-03-03T00:09:54;102277.53;;;10.66;64.59
64739;BME280;51175;51.186;0.276;2023-03-03T00:10:24;102274.06;;;10.66;64.54
64739;BME280;51175;51.186;0.276;2023-03-03T00:10:55;102273.25;;;10.65;64.51
64739;BME280;51175;51.186;0.276;2023-03-03T00:11:25;102269.81;;;10.65;64.68
64739;BME280;51175;51.186;0.276;2023-03-03T00:11:58;102276.72;;;10.66;64.55
64739;BME280;51175;51.186;0.276;2023-03-03T00:12:30;102282.00;;;10.66;64.47
64739;BME280;51175;51.186;0.276;2023-03-03T00:13:00;102275.91;;;10.65;64.45
64739;BME280;51175;51.186;0.276;2023-03-03T00:13:30;102275.13;;;10.65;64.47
64739;BME280;51175;51.186;0.276;2023-03-03T00:14:01;102276.13;;;10.64;64.28
64739;BME280;51175;51.186;0.276;2023-03-03T00:14:32;102276.94;;;10.64;64.48
64739;BME280;51175;51.186;0.276;2023-03-03T00:15:13;102277.75;;;10.65;64.34
64739;BME280;51175;51.186;0.276;2023-03-03T00:15:44;102280.41;;;10.65;64.34
64739;BME280;51175;51.186;0.276;2023-03-03T00:16:30;102278.75;;;10.64;64.39
64739;BME280;51175;51.186;0.276;2023-03-03T00:17:11;102278.53;;;10.65;64.37
64739;BME280;51175;51.186;0.276;2023-03-03T00:17:44;102276.13;;;10.64;64.26
64739;BME280;51175;51.186;0.276;2023-03-03T00:18:20;102277.16;;;10.63;64.40
64739;BME280;51175;51.186;0.276;2023-03-03T00:18:52;102279.78;;;10.63;64.41
64739;BME280;51175;51.186;0.276;2023-03-03T00:19:23;102281.63;;;10.62;64.61
64739;BME280;51175;51.186;0.276;2023-03-03T00:19:54;102285.06;;;10.63;64.61
64739;BME280;51175;51.186;0.276;2023-03-03T00:20:38;102273.69;;;10.62;64.54
64739;BME280;51175;51.186;0.276;2023-03-03T00:21:26;102275.53;;;10.62;64.49
64739;BME280;51175;51.186;0.276;2023-03-03T00:21:58;102278.97;;;10.62;64.75
64739;BME280;51175;51.186;0.276;2023-03-03T00:22:34;102274.72;;;10.61;64.66
64739;BME280;51175;51.186;0.276;2023-03-03T00:23:29;102280.81;;;10.62;64.67
64739;BME280;51175;51.186;0.276;2023-03-03T00:24:22;102278.41;;;10.60;64.65
64739;BME280;51175;51.186;0.276;2023-03-03T00:24:53;102286.31;;;10.60;64.46
64739;BME280;51175;51.186;0.276;2023-03-03T00:25:30;102274.13;;;10.59;64.65
64739;BME280;51175;51.186;0.276;2023-03-03T00:26:02;102277.59;;;10.60;64.57
64739;BME280;51175;51.186;0.276;2023-03-03T00:26:37;102273.34;;;10.59;64.67
64739;BME280;51175;51.186;0.276;2023-03-03T00:27:28;102272.50;;;10.58;64.66
64739;BME280;51175;51.186;0.276;2023-03-03T00:28:19;102275.97;;;10.59;64.55
64739;BME280;51175;51.186;0.276;2023-03-03T00:28:52;102277.78;;;10.58;64.66
64739;BME280;51175;51.186;0.276;2023-03-03T00:29:35;102274.34;;;10.58;64.52
64739;BME280;51175;51.186;0.276;2023-03-03T00:30:17;102278.00;;;10.57;64.51
64739;BME280;51175;51.186;0.276;2023-03-03T00:30:47;102285.13;;;10.56;64.52
64739;BME280;51175;51.186;0.276;2023-03-03T00:31:28;102275.38;;;10.57;64.40
64739;BME280;51175;51.186;0.276;2023-03-03T00:32:29;102278.00;;;10.57;64.57
64739;BME280;51175;51.186;0.276;2023-03-03T00:33:00;102274.75;;;10.54;64.61
64739;BME280;51175;51.186;0.276;2023-03-03T00:33:32;102278.22;;;10.55;64.78
64739;BME280;51175;51.186;0.276;2023-03-03T00:34:41;102278.22;;;10.55;64.87
64739;BME280;51175;51.186;0.276;2023-03-03T00:36:44;102287.75;;;10.56;64.73
64739;BME280;51175;51.186;0.276;2023-03-03T00:37:32;102283.50;;;10.55;64.84
64739;BME280;51175;51.186;0.276;2023-03-03T00:38:13;102279.84;;;10.56;64.74
64739;BME280;51175;51.186;0.276;2023-03-03T00:38:47;102290.41;;;10.56;64.73
64739;BME280;51175;51.186;0.276;2023-03-03T00:39:24;102282.69;;;10.54;64.91
64739;BME280;51175;51.186;0.276;2023-03-03T00:40:10;102290.41;;;10.56;64.84
64739;BME280;51175;51.186;0.276;2023-03-03T00:40:43;102287.75;;;10.56;64.93
64739;BME280;51175;51.186;0.276;2023-03-03T00:41:21;102288.78;;;10.55;64.82
64739;BME280;51175;51.186;0.276;2023-03-03T00:41:52;102294.09;;;10.55;64.95
64739;BME280;51175;51.186;0.276;2023-03-03T00:42:23;102287.97;;;10.54;65.10
64739;BME280;51175;51.186;0.276;2023-03-03T00:42:55;102291.44;;;10.55;65.02
64739;BME280;51175;51.186;0.276;2023-03-03T00:43:33;102293.03;;;10.56;65.05
64739;BME280;51175;51.186;0.276;2023-03-03T00:44:57;102292.25;;;10.55;64.79
64739;BME280;51175;51.186;0.276;2023-03-03T00:45:58;102294.91;;;10.55;64.94
64739;BME280;51175;51.186;0.276;2023-03-03T00:46:29;102296.72;;;10.55;64.87
64739;BME280;51175;51.186;0.276;2023-03-03T00:47:41;102291.44;;;10.55;64.90
64739;BME280;51175;51.186;0.276;2023-03-03T00:49:18;102294.91;;;10.55;64.99
64739;BME280;51175;51.186;0.276;2023-03-03T00:50:15;102299.38;;;10.55;64.94
64739;BME280;51175;51.186;0.276;2023-03-03T00:50:47;102292.47;;;10.54;65.03
64739;BME280;51175;51.186;0.276;2023-03-03T00:51:31;102298.53;;;10.54;65.07
64739;BME280;51175;51.186;0.276;2023-03-03T00:52:11;102301.19;;;10.54;65.03
64739;BME280;51175;51.186;0.276;2023-03-03T00:52:50;102297.97;;;10.52;64.96
64739;BME280;51175;51.186;0.276;2023-03-03T00:53:25;102299.59;;;10.53;65.10
64739;BME280;51175;51.186;0.276;2023-03-03T00:53:56;102304.03;;;10.53;65.01
64739;BME280;51175;51.186;0.276;2023-03-03T00:54:27;102306.47;;;10.54;65.09
64739;BME280;51175;51.186;0.276;2023-03-03T00:54:57;102299.59;;;10.53;65.18
64739;BME280;51175;51.186;0.276;2023-03-03T00:55:29;102301.19;;;10.54;64.93
64739;BME280;51175;51.186;0.276;2023-03-03T00:56:00;102303.81;;;10.54;64.93
64739;BME280;51175;51.186;0.276;2023-03-03T00:56:30;102304.66;;;10.55;64.96
64739;BME280;51175;51.186;0.276;2023-03-03T00:57:01;102306.47;;;10.54;65.07
64739;BME280;51175;51.186;0.276;2023-03-03T00:57:31;102305.47;;;10.55;64.96
64739;BME280;51175;51.186;0.276;2023-03-03T00:58:02;102299.38;;;10.55;64.84
64739;BME280;51175;51.186;0.276;2023-03-03T00:58:33;102303.03;;;10.54;64.91
64739;BME280;51175;51.186;0.276;2023-03-03T00:59:03;102305.69;;;10.54;65.02
64739;BME280;51175;51.186;0.276;2023-03-03T00:59:34;102311.75;;;10.54;65.08
64739;BME280;51175;51.186;0.276;2023-03-03T01:00:04;102301.19;;;10.54;64.97
64739;BME280;51175;51.186;0.276;2023-03-03T01:00:36;102305.47;;;10.55;65.00
64739;BME280;51175;51.186;0.276;2023-03-03T01:01:06;102305.47;;;10.55;65.05
64739;BME280;51175;51.186;0.276;2023-03-03T01:01:37;102302.81;;;10.55;64.97
64739;BME280;51175;51.186;0.276;2023-03-03T01:02:07;102302.81;;;10.55;65.06
64739;BME280;51175;51.186;0.276;2023-03-03T01:02:37;102291.44;;;10.55;64.90
64739;BME280;51175;51.186;0.276;2023-03-03T01:03:13;102297.53;;;10.55;64.95
64739;BME280;51175;51.186;0.276;2023-03-03T01:03:44;102300.97;;;10.56;64.98
64739;BME280;51175;51.186;0.276;2023-03-03T01:04:15;102297.53;;;10.55;64.98
64739;BME280;51175;51.186;0.276;2023-03-03T01:04:49;102298.34;;;10.56;65.26
64739;BME280;51175;51.186;0.276;2023-03-03T01:05:20;102300.97;;;10.56;65.02
64739;BME280;51175;51.186;0.276;2023-03-03T01:05:52;102298.34;;;10.56;64.99
64739;BME280;51175;51.186;0.276;2023-03-03T01:06:22;102303.63;;;10.56;64.93
64739;BME280;51175;51.186;0.276;2023-03-03T01:06:53;102299.38;;;10.55;65.05
64739;BME280;51175;51.186;0.276;2023-03-03T01:07:23;102302.81;;;10.55;64.98
64739;BME280;51175;51.186;0.276;2023-03-03T01:07:54;102300.97;;;10.56;65.07
64739;BME280;51175;51.186;0.276;2023-03-03T01:08:24;102301.78;;;10.57;64.97
64739;BME280;51175;51.186;0.276;2023-03-03T01:08:55;102303.41;;;10.58;64.88
64739;BME280;51175;51.186;0.276;2023-03-03T01:09:26;102296.50;;;10.57;64.99
64739;BME280;51175;51.186;0.276;2023-03-03T01:09:56;102307.06;;;10.57;65.15
64739;BME280;51175;51.186;0.276;2023-03-03T01:10:29;102300.75;;;10.58;65.25
64739;BME280;51175;51.186;0.276;2023-03-03T01:11:22;102298.34;;;10.56;65.33
64739;BME280;51175;51.186;0.276;2023-03-03T01:11:53;102306.03;;;10.58;65.17
64739;BME280;51175;51.186;0.276;2023-03-03T01:12:24;102300.97;;;10.56;65.07
64739;BME280;51175;51.186;0.276;2023-03-03T01:12:54;102307.06;;;10.57;65.15
64739;BME280;51175;51.186;0.276;2023-03-03T01:13:28;102304.44;;;10.57;65.25
64739;BME280;51175;51.186;0.276;2023-03-03T01:13:59;102298.13;;;10.58;65.04
64739;BME280;51175;51.186;0.276;2023-03-03T01:14:30;102299.16;;;10.57;65.31
64739;BME280;51175;51.186;0.276;2023-03-03T01:15:01;102306.03;;;10.58;65.28
64739;BME280;51175;51.186;0.276;2023-03-03T01:15:31;102299.16;;;10.57;65.20
64739;BME280;51175;51.186;0.276;2023-03-03T01:16:02;102299.75;;;10.59;65.28
64739;BME280;51175;51.186;0.276;2023-03-03T01:16:33;102305.03;;;10.59;65.18
64739;BME280;51175;51.186;0.276;2023-03-03T01:17:04;102297.91;;;10.59;65.24
64739;BME280;51175;51.186;0.276;2023-03-03T01:17:35;102305.81;;;10.59;65.05
64739;BME280;51175;51.186;0.276;2023-03-03T01:18:06;102309.50;;;10.58;65.06
64739;BME280;51175;51.186;0.276;2023-03-03T01:18:37;102305.03;;;10.59;65.08
64739;BME280;51175;51.186;0.276;2023-03-03T01:19:11;102302.41;;;10.59;65.13
64739;BME280;51175;51.186;0.276;2023-03-03T01:19:41;102307.06;;;10.57;65.03
64739;BME280;51175;51.186;0.276;2023-03-03T01:20:15;102298.94;;;10.58;65.10
64739;BME280;51175;51.186;0.276;2023-03-03T01:20:46;102306.03;;;10.58;65.06
64739;BME280;51175;51.186;0.276;2023-03-03T01:21:16;102308.69;;;10.58;65.05
64739;BME280;51175;51.186;0.276;2023-03-03T01:21:46;102300.97;;;10.56;65.13
64739;BME280;51175;51.186;0.276;2023-03-03T01:22:17;102304.44;;;10.57;65.19
64739;BME280;51175;51.186;0.276;2023-03-03T01:22:47;102303.41;;;10.58;65.05
64739;BME280;51175;51.186;0.276;2023-03-03T01:23:18;102304.44;;;10.57;65.18
64739;BME280;51175;51.186;0.276;2023-03-03T01:23:48;102303.63;;;10.56;65.06
64739;BME280;51175;51.186;0.276;2023-03-03T01:24:19;102293.03;;;10.56;65.12
64739;BME280;51175;51.186;0.276;2023-03-03T01:24:49;102303.63;;;10.56;64.95
64739;BME280;51175;51.186;0.276;2023-03-03T01:25:19;102301.78;;;10.57;64.96
64739;BME280;51175;51.186;0.276;2023-03-03T01:25:50;102301.78;;;10.57;64.98
64739;BME280;51175;51.186;0.276;2023-03-03T01:26:20;102298.34;;;10.56;65.10
64739;BME280;51175;51.186;0.276;2023-03-03T01:26:51;102297.53;;;10.55;65.24
64739;BME280;51175;51.186;0.276;2023-03-03T01:27:21;102305.47;;;10.55;64.96
64739;BME280;51175;51.186;0.276;2023-03-03T01:27:51;102308.09;;;10.55;64.90
64739;BME280;51175;51.186;0.276;2023-03-03T01:28:21;102302.81;;;10.55;65.08
64739;BME280;51175;51.186;0.276;2023-03-03T01:28:52;102308.91;;;10.56;64.94
64739;BME280;51175;51.186;0.276;2023-03-03T01:29:22;102305.47;;;10.55;65.09
64739;BME280;51175;51.186;0.276;2023-03-03T01:29:52;102299.38;;;10.55;65.14
64739;BME280;51175;51.186;0.276;2023-03-03T01:30:23;102302.00;;;10.55;65.02
64739;BME280;51175;51.186;0.276;2023-03-03T01:30:54;102304.66;;;10.55;64.91
64739;BME280;51175;51.186;0.276;2023-03-03T01:31:29;102308.09;;;10.55;64.88
64739;BME280;51175;51.186;0.276;2023-03-03T01:31:59;102309.94;;;10.55;65.04
64739;BME280;51175;51.186;0.276;2023-03-03T01:32:29;102302.81;;;10.55;64.85
64739;BME280;51175;51.186;0.276;2023-03-03T01:33:00;102311.53;;;10.56;64.97
64739;BME280;51175;51.186;0.276;2023-03-03T01:33:31;102303.81;;;10.54;64.86
64739;BME280;51175;51.186;0.276;2023-03-03T01:34:01;102312.56;;;10.55;65.05
64739;BME280;51175;51.186;0.276;2023-03-03T01:34:32;102309.13;;;10.54;65.00
64739;BME280;51175;51.186;0.276;2023-03-03T01:35:03;102303.81;;;10.54;64.97
64739;BME280;51175;51.186;0.276;2023-03-03T01:35:34;102298.53;;;10.54;64.64
64739;BME280;51175;51.186;0.276;2023-03-03T01:36:05;102303.81;;;10.54;64.90
64739;BME280;51175;51.186;0.276;2023-03-03T01:36:36;102300.41;;;10.54;64.81
64739;BME280;51175;51.186;0.276;2023-03-03T01:37:07;102303.81;;;10.54;65.24
64739;BME280;51175;51.186;0.276;2023-03-03T01:37:37;102299.38;;;10.55;64.86
64739;BME280;51175;51.186;0.276;2023-03-03T01:38:07;102305.69;;;10.54;65.09
64739;BME280;51175;51.186;0.276;2023-03-03T01:38:38;102301.19;;;10.54;64.71
64739;BME280;51175;51.186;0.276;2023-03-03T01:39:10;102304.66;;;10.55;64.99
64739;BME280;51175;51.186;0.276;2023-03-03T01:39:40;102299.38;;;10.55;64.84
64739;BME280;51175;51.186;0.276;2023-03-03T01:40:18;102308.91;;;10.56;65.05
64739;BME280;51175;51.186;0.276;2023-03-03T01:40:53;102304.66;;;10.55;64.89
64739;BME280;51175;51.186;0.276;2023-03-03T01:41:27;102300.41;;;10.54;65.00
64739;BME280;51175;51.186;0.276;2023-03-03T01:41:59;102309.13;;;10.54;64.74
64739;BME280;51175;51.186;0.276;2023-03-03T01:42:29;102300.41;;;10.54;64.67
64739;BME280;51175;51.186;0.276;2023-03-03T01:43:01;102299.38;;;10.55;64.51
64739;BME280;51175;51.186;0.276;2023-03-03T01:43:32;102302.00;;;10.55;64.87
64739;BME280;51175;51.186;0.276;2023-03-03T01:44:02;102304.88;;;10.53;64.87
64739;BME280;51175;51.186;0.276;2023-03-03T01:44:33;102302.00;;;10.55;64.71
64739;BME280;51175;51.186;0.276;2023-03-03T01:45:24;102307.28;;;10.55;64.87
64739;BME280;51175;51.186;0.276;2023-03-03T01:47:14;102310.16;;;10.53;64.85
64739;BME280;51175;51.186;0.276;2023-03-03T01:48:32;102308.53;;;10.52;64.99
64739;BME280;51175;51.186;0.276;2023-03-03T01:49:09;102303.25;;;10.52;64.88
64739;BME280;51175;51.186;0.276;2023-03-03T01:50:26;102299.78;;;10.52;65.06
64739;BME280;51175;51.186;0.276;2023-03-03T01:50:59;102303.25;;;10.52;65.03
64739;BME280;51175;51.186;0.276;2023-03-03T01:51:45;102305.06;;;10.52;65.00
64739;BME280;51175;51.186;0.276;2023-03-03T01:52:37;102306.13;;;10.51;65.18
64739;BME280;51175;51.186;0.276;2023-03-03T01:53:16;102305.28;;;10.50;65.16
64739;BME280;51175;51.186;0.276;2023-03-03T01:53:56;102311.41;;;10.51;65.06
64739;BME280;51175;51.186;0.276;2023-03-03T01:54:30;102306.31;;;10.49;65.17
64739;BME280;51175;51.186;0.276;2023-03-03T01:55:12;102311.59;;;10.49;65.11
64739;BME280;51175;51.186;0.276;2023-03-03T01:55:44;102308.16;;;10.49;65.21
64739;BME280;51175;51.186;0.276;2023-03-03T01:56:15;102305.50;;;10.49;64.99
64739;BME280;51175;51.186;0.276;2023-03-03T01:56:45;102304.69;;;10.48;65.26
64739;BME280;51175;51.186;0.276;2023-03-03T01:57:21;102298.63;;;10.48;65.28
64739;BME280;51175;51.186;0.276;2023-03-03T01:58:01;102307.31;;;10.48;65.36
64739;BME280;51175;51.186;0.276;2023-03-03T01:58:38;102306.53;;;10.48;65.40
64739;BME280;51175;51.186;0.276;2023-03-03T01:59:20;102311.00;;;10.47;65.07
64739;BME280;51175;51.186;0.276;2023-03-03T01:59:54;102300.44;;;10.47;65.29
64739;BME280;51175;51.186;0.276;2023-03-03T02:00:26;102305.72;;;10.47;65.39
64739;BME280;51175;51.186;0.276;2023-03-03T02:01:03;102308.16;;;10.49;65.25
64739;BME280;51175;51.186;0.276;2023-03-03T02:01:34;102305.72;;;10.47;65.13
64739;BME280;51175;51.186;0.276;2023-03-03T02:02:06;102311.00;;;10.47;65.19
64739;BME280;51175;51.186;0.276;2023-03-03T02:02:37;102303.91;;;10.48;65.00
64739;BME280;51175;51.186;0.276;2023-03-03T02:03:08;102305.72;;;10.47;65.09
64739;BME280;51175;51.186;0.276;2023-03-03T02:03:40;102308.34;;;10.47;65.20
64739;BME280;51175;51.186;0.276;2023-03-03T02:04:12;102311.81;;;10.48;65.29
64739;BME280;51175;51.186;0.276;2023-03-03T02:04:42;102315.25;;;10.48;65.26
64739;BME280;51175;51.186;0.276;2023-03-03T02:05:15;102306.53;;;10.48;65.19
64739;BME280;51175;51.186;0.276;2023-03-03T02:05:45;102307.31;;;10.48;65.30
64739;BME280;51175;51.186;0.276;2023-03-03T02:06:19;102311.81;;;10.48;65.20
64739;BME280;51175;51.186;0.276;2023-03-03T02:06:57;102303.06;;;10.47;65.21
64739;BME280;51175;51.186;0.276;2023-03-03T02:07:29;102303.91;;;10.48;65.12
64739;BME280;51175;51.186;0.276;2023-03-03T02:08:00;102314.47;;;10.48;65.18
64739;BME280;51175;51.186;0.276;2023-03-03T02:08:48;102311.81;;;10.48;65.11
64739;BME280;51175;51.186;0.276;2023-03-03T02:09:45;102306.53;;;10.48;65.05
64739;BME280;51175;51.186;0.276;2023-03-03T02:10:20;102305.72;;;10.47;65.13
64739;BME280;51175;51.186;0.276;2023-03-03T02:10:51;102302.25;;;10.47;65.25
64739;BME280;51175;51.186;0.276;2023-03-03T02:11:22;102313.81;;;10.46;65.28
64739;BME280;51175;51.186;0.276;2023-03-03T02:11:58;102311.81;;;10.48;65.35
64739;BME280;51175;51.186;0.276;2023-03-03T02:12:37;102307.53;;;10.47;65.24
64739;BME280;51175;51.186;0.276;2023-03-03T02:13:07;102304.91;;;10.47;65.23
64739;BME280;51175;51.186;0.276;2023-03-03T02:13:38;102305.91;;;10.46;65.23
64739;BME280;51175;51.186;0.276;2023-03-03T02:14:10;102313.81;;;10.46;65.22
64739;BME280;51175;51.186;0.276;2023-03-03T02:14:41;102307.72;;;10.45;65.03
64739;BME280;51175;51.186;0.276;2023-03-03T02:15:52;102306.75;;;10.46;65.24
64739;BME280;51175;51.186;0.276;2023-03-03T02:16:22;102309.41;;;10.46;65.22
64739;BME280;51175;51.186;0.276;2023-03-03T02:16:52;102307.72;;;10.45;65.08
64739;BME280;51175;51.186;0.276;2023-03-03T02:17:23;102305.91;;;10.46;65.07
64739;BME280;51175;51.186;0.276;2023-03-03T02:17:56;102304.91;;;10.47;65.21
64739;BME280;51175;51.186;0.276;2023-03-03T02:18:27;102300.63;;;10.46;65.30
64739;BME280;51175;51.186;0.276;2023-03-03T02:18:58;102304.28;;;10.45;65.06
64739;BME280;51175;51.186;0.276;2023-03-03T02:20:15;102299.81;;;10.45;65.11
64739;BME280;51175;51.186;0.276;2023-03-03T02:21:01;102303.25;;;10.46;65.14
64739;BME280;51175;51.186;0.276;2023-03-03T02:21:34;102302.44;;;10.45;64.99
64739;BME280;51175;51.186;0.276;2023-03-03T02:22:04;102310.19;;;10.47;65.11
64739;BME280;51175;51.186;0.276;2023-03-03T02:24:02;102306.94;;;10.45;65.00
64739;BME280;51175;51.186;0.276;2023-03-03T02:24:59;102305.28;;;10.43;64.90
64739;BME280;51175;51.186;0.276;2023-03-03T02:25:35;102310.59;;;10.43;65.16
64739;BME280;51175;51.186;0.276;2023-03-03T02:26:11;102306.94;;;10.45;65.16
64739;BME280;51175;51.186;0.276;2023-03-03T02:26:43;102309.78;;;10.43;65.17
64739;BME280;51175;51.186;0.276;2023-03-03T02:27:14;102307.94;;;10.43;65.06
64739;BME280;51175;51.186;0.276;2023-03-03T02:27:45;102304.50;;;10.43;64.93
64739;BME280;51175;51.186;0.276;2023-03-03T02:28:15;102309.78;;;10.43;64.98
64739;BME280;51175;51.186;0.276;2023-03-03T02:28:45;102310.59;;;10.43;65.09
64739;BME280;51175;51.186;0.276;2023-03-03T02:29:16;102308.97;;;10.42;65.29
64739;BME280;51175;51.186;0.276;2023-03-03T02:29:46;102311.63;;;10.42;65.18
64739;BME280;51175;51.186;0.276;2023-03-03T02:30:22;102307.16;;;10.43;65.01
64739;BME280;51175;51.186;0.276;2023-03-03T02:30:54;102306.34;;;10.42;65.21
64739;BME280;51175;51.186;0.276;2023-03-03T02:31:27;102302.88;;;10.42;65.06
64739;BME280;51175;51.186;0.276;2023-03-03T02:31:58;102308.97;;;10.42;64.97
64739;BME280;51175;51.186;0.276;2023-03-03T02:32:28;102306.34;;;10.42;65.07
64739;BME280;51175;51.186;0.276;2023-03-03T02:32:58;102304.50;;;10.43;64.91
64739;BME280;51175;51.186;0.276;2023-03-03T02:33:29;102305.28;;;10.43;65.17
64739;BME280;51175;51.186;0.276;2023-03-03T02:33:59;102310.59;;;10.43;65.16
64739;BME280;51175;51.186;0.276;2023-03-03T02:34:30;102310.59;;;10.43;65.17
64739;BME280;51175;51.186;0.276;2023-03-03T02:35:00;102305.28;;;10.43;65.04
64739;BME280;51175;51.186;0.276;2023-03-03T02:35:38;102305.28;;;10.43;65.00
64739;BME280;51175;51.186;0.276;2023-03-03T02:36:18;102306.13;;;10.44;65.09
64739;BME280;51175;51.186;0.276;2023-03-03T02:36:48;102305.28;;;10.43;65.02
64739;BME280;51175;51.186;0.276;2023-03-03T02:37:19;102309.56;;;10.45;65.02
64739;BME280;51175;51.186;0.276;2023-03-03T02:37:50;102300.84;;;10.44;65.05
64739;BME280;51175;51.186;0.276;2023-03-03T02:38:27;102307.94;;;10.43;65.07
64739;BME280;51175;51.186;0.276;2023-03-03T02:39:37;102300.00;;;10.43;65.17
64739;BME280;51175;51.186;0.276;2023-03-03T02:40:08;102304.50;;;10.43;64.98
64739;BME280;51175;51.186;0.276;2023-03-03T02:40:46;102305.28;;;10.43;65.08
64739;BME280;51175;51.186;0.276;2023-03-03T02:42:20;102305.28;;;10.43;65.20
64739;BME280;51175;51.186;0.276;2023-03-03T02:42:52;102299.22;;;10.43;65.13
64739;BME280;51175;51.186;0.276;2023-03-03T02:44:24;102303.69;;;10.42;65.09
64739;BME280;51175;51.186;0.276;2023-03-03T02:44:55;102306.34;;;10.42;65.10
64739;BME280;51175;51.186;0.276;2023-03-03T02:45:25;102304.72;;;10.41;65.01
64739;BME280;51175;51.186;0.276;2023-03-03T02:45:55;102311.81;;;10.41;65.06
64739;BME280;51175;51.186;0.276;2023-03-03T02:46:27;102303.09;;;10.40;65.14
64739;BME280;51175;51.186;0.276;2023-03-03T02:46:59;102301.47;;;10.39;65.06
64739;BME280;51175;51.186;0.276;2023-03-03T02:47:29;102307.38;;;10.41;65.28
64739;BME280;51175;51.186;0.276;2023-03-03T02:47:59;102303.09;;;10.40;65.18
64739;BME280;51175;51.186;0.276;2023-03-03T02:48:30;102311.00;;;10.40;65.15
64739;BME280;51175;51.186;0.276;2023-03-03T02:49:01;102307.38;;;10.41;65.10
64739;BME280;51175;51.186;0.276;2023-03-03T02:49:34;102307.38;;;10.41;65.18
64739;BME280;51175;51.186;0.276;2023-03-03T02:50:05;102309.19;;;10.41;65.13
64739;BME280;51175;51.186;0.276;2023-03-03T02:50:36;102309.19;;;10.41;64.94
64739;BME280;51175;51.186;0.276;2023-03-03T02:51:06;102307.38;;;10.41;65.15
64739;BME280;51175;51.186;0.276;2023-03-03T02:51:37;102310.78;;;10.42;65.20
64739;BME280;51175;51.186;0.276;2023-03-03T02:52:08;102307.38;;;10.41;65.18
64739;BME280;51175;51.186;0.276;2023-03-03T02:52:39;102306.34;;;10.42;65.11
64739;BME280;51175;51.186;0.276;2023-03-03T02:53:09;102308.97;;;10.42;65.18
64739;BME280;51175;51.186;0.276;2023-03-03T02:53:40;102310.00;;;10.41;64.95
64739;BME280;51175;51.186;0.276;2023-03-03T02:54:12;102314.25;;;10.42;65.04
64739;BME280;51175;51.186;0.276;2023-03-03T02:54:43;102309.19;;;10.41;65.00
64739;BME280;51175;51.186;0.276;2023-03-03T02:55:13;102308.97;;;10.42;64.98
64739;BME280;51175;51.186;0.276;2023-03-03T02:55:43;102311.63;;;10.42;65.14
64739;BME280;51175;51.186;0.276;2023-03-03T02:56:14;102302.88;;;10.42;65.20
64739;BME280;51175;51.186;0.276;2023-03-03T02:56:44;102305.50;;;10.42;65.17
64739;BME280;51175;51.186;0.276;2023-03-03T02:57:14;102310.78;;;10.42;65.16
64739;BME280;51175;51.186;0.276;2023-03-03T02:57:45;102305.50;;;10.42;65.15
64739;BME280;51175;51.186;0.276;2023-03-03T02:58:15;102308.16;;;10.42;65.04
64739;BME280;51175;51.186;0.276;2023-03-03T02:58:46;102310.00;;;10.41;65.18
64739;BME280;51175;51.186;0.276;2023-03-03T02:59:16;102307.38;;;10.41;65.03
64739;BME280;51175;51.186;0.276;2023-03-03T02:59:47;102307.38;;;10.41;65.11
64739;BME280;51175;51.186;0.276;2023-03-03T03:00:17;102312.66;;;10.41;65.23
64739;BME280;51175;51.186;0.276;2023-03-03T03:00:48;102305.72;;;10.40;65.07
64739;BME280;51175;51.186;0.276;2023-03-03T03:01:19;102307.38;;;10.41;65.03
64739;BME280;51175;51.186;0.276;2023-03-03T03:01:49;102311.81;;;10.41;65.12
64739;BME280;51175;51.186;0.276;2023-03-03T03:02:20;102306.53;;;10.41;65.18
64739;BME280;51175;51.186;0.276;2023-03-03T03:02:50;102306.53;;;10.41;65.13
64739;BME280;51175;51.186;0.276;2023-03-03T03:03:20;102300.44;;;10.40;65.07
64739;BME280;51175;51.186;0.276;2023-03-03T03:03:51;102304.72;;;10.41;65.28
64739;BME280;51175;51.186;0.276;2023-03-03T03:04:24;102310.00;;;10.41;65.15
64739;BME280;51175;51.186;0.276;2023-03-03T03:04:54;102308.38;;;10.40;65.10
64739;BME280;51175;51.186;0.276;2023-03-03T03:05:25;102310.78;;;10.42;64.93
64739;BME280;51175;51.186;0.276;2023-03-03T03:05:55;102308.38;;;10.40;65.03
64739;BME280;51175;51.186;0.276;2023-03-03T03:06:25;102303.09;;;10.40;65.01
64739;BME280;51175;51.186;0.276;2023-03-03T03:06:56;102303.09;;;10.40;65.12